Time;durP1;ratioP1;P1;durP2;ratioP2;P2;SDS_P1;SDS_P2;PMS_P1;PMS_P2;Temp;Humidity;BMP_temperature;BMP_pressure;BME280_temperature;BME280_humidity;BME280_pressure;Samples;Min_cycle;Max_cycle;Signal;HPM_P1;HPM_P2
2021/06/14 00:02:00;;;;;;;2.17;1.50;;;11.50;99.90;;;;;;5046719;28;20510;-76
2021/06/14 00:04:26;;;;;;;2.90;1.50;;;11.50;99.90;;;;;;5046478;28;20204;-74
2021/06/14 00:06:52;;;;;;;3.00;1.57;;;11.50;99.90;;;;;;5046606;28;20263;-76
2021/06/14 00:09:24;;;;;;;1.83;1.57;;;11.40;99.90;;;;;;5046964;28;20178;-74
2021/06/14 00:11:49;;;;;;;1.40;1.20;;;11.30;99.90;;;;;;5046624;28;20187;-78
2021/06/14 00:14:15;;;;;;;3.70;1.80;;;11.30;99.90;;;;;;5045965;28;20198;-76
2021/06/14 00:16:41;;;;;;;1.83;1.73;;;11.40;99.90;;;;;;5046739;28;20684;-75
2021/06/14 00:19:08;;;;;;;2.53;1.87;;;11.50;99.90;;;;;;5046983;28;20617;-74
2021/06/14 00:21:35;;;;;;;1.77;1.30;;;11.40;99.90;;;;;;5047096;28;20527;-75
2021/06/14 00:24:01;;;;;;;3.00;1.87;;;11.30;99.90;;;;;;5045881;28;20292;-75
2021/06/14 00:26:26;;;;;;;1.67;1.43;;;11.20;99.90;;;;;;5045806;28;20293;-74
2021/06/14 00:28:52;;;;;;;3.23;1.50;;;11.10;99.90;;;;;;5046178;28;20613;-76
2021/06/14 00:31:18;;;;;;;1.60;1.50;;;11.20;99.90;;;;;;5046684;28;20239;-75
2021/06/14 00:33:43;;;;;;;2.23;1.43;;;11.00;99.90;;;;;;5045969;28;20201;-77
2021/06/14 00:36:09;;;;;;;2.03;1.20;;;11.00;99.90;;;;;;5045782;28;20182;-75
2021/06/14 00:38:37;;;;;;;1.93;1.40;;;11.00;99.90;;;;;;5046216;28;20196;-76
2021/06/14 00:41:04;;;;;;;2.83;1.63;;;10.90;99.90;;;;;;5046230;28;20541;-79
2021/06/14 00:43:32;;;;;;;1.83;1.53;;;11.00;99.90;;;;;;5046440;28;20260;-75
2021/06/14 00:45:58;;;;;;;3.37;1.63;;;10.80;99.90;;;;;;5045338;28;20238;-77
2021/06/14 00:48:23;;;;;;;1.67;1.40;;;10.80;99.90;;;;;;5046198;28;20218;-78
2021/06/14 00:50:52;;;;;;;2.37;1.40;;;10.60;99.90;;;;;;5046114;28;20178;-76
2021/06/14 00:53:22;;;;;;;1.67;1.50;;;10.50;99.90;;;;;;5045595;28;20190;-75
2021/06/14 00:55:49;;;;;;;2.37;1.40;;;10.50;99.90;;;;;;5045385;28;20220;-76
2021/06/14 00:58:16;;;;;;;1.63;1.33;;;10.40;99.90;;;;;;5045993;28;20705;-75
2021/06/14 01:00:42;;;;;;;1.90;1.13;;;10.50;99.90;;;;;;5046418;28;20530;-75
2021/06/14 01:03:09;;;;;;;1.67;1.47;;;10.50;99.90;;;;;;5045342;28;20277;-75
2021/06/14 01:05:38;;;;;;;1.13;1.00;;;10.40;99.90;;;;;;5044820;28;20224;-76
2021/06/14 01:08:08;;;;;;;2.83;1.57;;;10.30;99.90;;;;;;5045735;28;20295;-74
2021/06/14 01:10:36;;;;;;;1.63;1.30;;;10.30;99.90;;;;;;5045384;28;20579;-76
2021/06/14 01:13:28;;;;;;;2.50;2.03;;;10.30;99.90;;;;;;5045121;28;20206;-75
2021/06/14 01:16:12;;;;;;;1.37;1.27;;;10.30;99.90;;;;;;5044570;28;20433;-75
2021/06/14 01:18:59;;;;;;;5.50;1.80;;;10.40;99.90;;;;;;5045347;28;20186;-74
2021/06/14 01:21:29;;;;;;;1.67;1.50;;;10.50;99.90;;;;;;5045190;28;20186;-75
2021/06/14 01:24:10;;;;;;;1.33;1.23;;;10.40;99.90;;;;;;5045115;28;20194;-74
2021/06/14 01:26:43;;;;;;;1.87;1.73;;;10.40;99.90;;;;;;5045160;28;20213;-75
2021/06/14 01:29:11;;;;;;;1.03;0.97;;;10.30;99.90;;;;;;5045025;28;20252;-76
2021/06/14 01:31:38;;;;;;;1.93;1.03;;;10.30;99.90;;;;;;5045634;28;20282;-75
2021/06/14 01:34:06;;;;;;;1.23;1.10;;;10.20;99.90;;;;;;5044883;28;20190;-74
2021/06/14 01:36:34;;;;;;;1.60;1.30;;;10.10;99.90;;;;;;5044812;28;20617;-74
2021/06/14 01:39:02;;;;;;;2.33;1.40;;;10.10;99.90;;;;;;5045142;28;20197;-75
2021/06/14 01:41:29;;;;;;;1.37;1.27;;;10.00;99.90;;;;;;5044733;28;20182;-75
2021/06/14 01:43:58;;;;;;;1.73;1.20;;;9.90;99.90;;;;;;5044749;28;20282;-76
2021/06/14 01:46:26;;;;;;;2.33;1.67;;;9.80;99.90;;;;;;5044377;28;20725;-75
2021/06/14 01:48:53;;;;;;;1.60;1.27;;;10.00;99.90;;;;;;5044895;28;20748;-75
2021/06/14 01:51:26;;;;;;;1.77;1.40;;;10.00;99.90;;;;;;5044979;28;20180;-76
2021/06/14 01:54:03;;;;;;;1.43;1.23;;;10.10;99.90;;;;;;5044720;28;20218;-76
2021/06/14 01:56:33;;;;;;;4.23;1.80;;;10.10;99.90;;;;;;5044570;28;20212;-76
2021/06/14 01:59:01;;;;;;;2.03;1.27;;;10.10;99.90;;;;;;5044932;28;20622;-75
2021/06/14 02:01:31;;;;;;;1.57;1.30;;;10.20;99.90;;;;;;5044914;28;20664;-75
2021/06/14 02:03:59;;;;;;;1.43;1.33;;;10.10;99.90;;;;;;5044678;28;20312;-74
2021/06/14 02:06:29;;;;;;;2.40;1.63;;;10.20;99.90;;;;;;5043653;28;20190;-75
2021/06/14 02:08:56;;;;;;;1.60;1.30;;;10.20;99.90;;;;;;5044668;28;20197;-80
2021/06/14 02:11:22;;;;;;;1.60;1.20;;;10.20;99.90;;;;;;5044623;28;20268;-76
2021/06/14 02:13:48;;;;;;;2.97;2.00;;;10.10;99.90;;;;;;5044325;28;20327;-76
2021/06/14 02:16:16;;;;;;;1.27;1.10;;;10.10;99.90;;;;;;5043750;28;20202;-75
2021/06/14 02:18:42;;;;;;;1.87;1.63;;;10.00;99.90;;;;;;5044666;28;20190;-78
2021/06/14 02:21:07;;;;;;;1.53;1.20;;;9.90;99.90;;;;;;5044617;28;20193;-76
2021/06/14 02:23:34;;;;;;;1.53;1.23;;;9.90;99.90;;;;;;5044246;28;20899;-76
2021/06/14 02:26:00;;;;;;;1.57;1.17;;;9.90;99.90;;;;;;5042521;28;20186;-74
2021/06/14 02:28:26;;;;;;;1.73;1.30;;;9.80;99.90;;;;;;5044325;28;20192;-75
2021/06/14 02:30:52;;;;;;;1.30;0.97;;;9.70;99.90;;;;;;5044440;28;20182;-75
2021/06/14 02:33:17;;;;;;;3.03;1.57;;;9.70;99.90;;;;;;5043940;28;20198;-74
2021/06/14 02:35:43;;;;;;;2.87;1.80;;;9.70;99.90;;;;;;5043745;28;20217;-75
2021/06/14 02:38:10;;;;;;;2.47;1.20;;;9.70;99.90;;;;;;5044082;28;20255;-80
2021/06/14 02:40:36;;;;;;;1.50;1.27;;;9.80;99.90;;;;;;5044242;28;20182;-76
2021/06/14 02:43:06;;;;;;;2.80;1.40;;;9.90;99.90;;;;;;5044205;28;20209;-73
2021/06/14 02:45:32;;;;;;;1.23;1.10;;;10.00;99.90;;;;;;5043764;28;20185;-74
2021/06/14 02:47:58;;;;;;;3.27;1.53;;;10.00;99.90;;;;;;5044126;28;20544;-75
2021/06/14 02:50:27;;;;;;;2.87;1.40;;;10.00;99.90;;;;;;5044818;28;20189;-75
2021/06/14 02:52:54;;;;;;;2.23;1.33;;;9.90;99.90;;;;;;5046006;28;20306;-74
2021/06/14 02:55:28;;;;;;;2.60;1.53;;;9.90;99.90;;;;;;5047945;28;20206;-75
2021/06/14 02:57:56;;;;;;;1.57;1.20;;;9.80;99.90;;;;;;5048600;28;20182;-76
2021/06/14 03:00:31;;;;;;;2.63;1.60;;;9.90;99.90;;;;;;5048556;28;20246;-74
2021/06/14 03:03:02;;;;;;;3.37;1.87;;;9.90;99.90;;;;;;5047734;28;20209;-78
2021/06/14 03:05:29;;;;;;;3.63;1.27;;;9.80;99.90;;;;;;5047399;28;20641;-76
2021/06/14 03:07:58;;;;;;;1.70;1.50;;;9.80;99.90;;;;;;5048004;28;20219;-78
2021/06/14 03:10:25;;;;;;;2.17;1.70;;;9.90;99.90;;;;;;5048300;28;20513;-77
2021/06/14 03:12:56;;;;;;;2.17;1.23;;;9.80;99.90;;;;;;5047764;28;20202;-75
2021/06/14 03:15:25;;;;;;;2.17;1.47;;;9.80;99.90;;;;;;5047519;28;20217;-75
2021/06/14 03:17:53;;;;;;;1.40;1.20;;;9.90;99.90;;;;;;5047663;28;20277;-76
2021/06/14 03:20:21;;;;;;;2.67;1.97;;;9.90;99.90;;;;;;5047897;28;20649;-75
2021/06/14 03:22:48;;;;;;;2.53;1.63;;;9.90;99.90;;;;;;5047577;28;20752;-76
2021/06/14 03:25:14;;;;;;;2.00;1.50;;;10.10;99.90;;;;;;5047133;28;20174;-75
2021/06/14 03:27:42;;;;;;;2.60;1.80;;;10.10;99.90;;;;;;5047923;28;20515;-77
2021/06/14 03:30:10;;;;;;;2.70;1.83;;;10.20;99.90;;;;;;5049139;28;20231;-75
2021/06/14 03:49:47;;;;;;;;;;;;;;;;;;;;;
2021/06/14 03:52:53;;;;;;;4.50;2.97;;;10.70;99.90;;;;;;4927151;29;20524;-75
2021/06/14 03:56:21;;;;;;;;;;;;;;;;;;;;;
2021/06/14 03:59:44;;;;;;;;;;;;;;;;;;;;;
2021/06/14 04:12:02;;;;;;;2.77;2.30;;;11.00;99.90;;;;;;4916565;29;20209;-74
2021/06/14 04:14:57;;;;;;;3.37;2.20;;;11.10;99.90;;;;;;4930158;29;20214;-75
2021/06/14 04:18:31;;;;;;;3.63;1.90;;;11.20;99.90;;;;;;5027534;28;20202;-74
2021/06/14 04:21:19;;;;;;;1.77;1.37;;;11.30;99.90;;;;;;4978632;28;20189;-75
2021/06/14 04:28:03;;;;;;;;;;;;;;;;;;;;;
2021/06/14 04:37:18;;;;;;;2.67;1.65;;;17.90;99.90;;;;;;4910773;29;20546;-75
2021/06/14 04:43:41;;;;;;;2.40;1.35;;;19.80;99.90;;;;;;4910457;29;20233;-75
2021/06/14 04:46:42;;;;;;;;;;;;;;;;;;;;;
2021/06/14 04:53:51;;;;;;;;;;;;;;;;;;;;;
2021/06/14 04:57:26;;;;;;;;;;;;;;;;;;;;;
2021/06/14 05:04:11;;;;;;;1.67;1.40;;;22.20;99.90;;;;;;4957905;22;20247;-75
2021/06/14 05:07:18;;;;;;;1.98;1.50;;;22.60;99.90;;;;;;5004458;28;20713;-75
2021/06/14 05:14:10;;;;;;;2.30;1.60;;;22.90;99.90;;;;;;5006064;28;20214;-75
2021/06/14 05:17:23;;;;;;;;;;;;;;;;;;;;;
2021/06/14 05:27:40;;;;;;;2.80;1.30;;;23.50;99.90;;;;;;4954898;28;20223;-75
2021/06/14 05:34:01;;;;;;;2.88;1.80;;;24.20;99.90;;;;;;4914086;29;20215;-75
2021/06/14 05:37:50;;;;;;;1.25;1.02;;;24.20;99.90;;;;;;4916271;29;20670;-75
2021/06/14 05:40:49;;;;;;;2.88;1.30;;;24.80;99.90;;;;;;4912550;29;20202;-75
2021/06/14 05:44:09;;;;;;;2.17;1.35;;;24.90;99.90;;;;;;4956002;22;20240;-75
2021/06/14 05:47:11;;;;;;;1.58;1.40;;;25.20;99.90;;;;;;5054306;28;20335;-75
2021/06/14 05:50:36;;;;;;;2.47;1.25;;;25.10;99.30;;;;;;5087340;28;20667;-75
2021/06/14 05:53:49;;;;;;;2.22;1.27;;;25.50;98.50;;;;;;5045754;28;20218;-74
2021/06/14 05:57:03;;;;;;;2.10;1.27;;;25.70;96.60;;;;;;4966668;28;20712;-75
2021/06/14 05:59:41;;;;;;;1.40;1.30;;;25.50;95.50;;;;;;5045207;28;20728;-75
2021/06/14 06:16:23;;;;;;;1.55;1.13;;;24.90;94.90;;;;;;4911064;28;20197;-76
2021/06/14 06:19:16;;;;;;;2.60;1.50;;;25.30;94.30;;;;;;4951836;28;20218;-76
2021/06/14 06:21:49;;;;;;;3.05;1.45;;;25.30;93.80;;;;;;4984510;28;20212;-77
2021/06/14 06:24:20;;;;;;;2.42;1.30;;;25.70;94.60;;;;;;5028077;28;20221;-76
2021/06/14 06:26:46;;;;;;;2.47;1.70;;;25.30;93.20;;;;;;5071681;28;20228;-77
2021/06/14 06:29:11;;;;;;;3.88;1.10;;;24.90;92.90;;;;;;5083468;28;21101;-75
2021/06/14 06:31:37;;;;;;;2.75;1.55;;;24.70;94.70;;;;;;5082050;28;20630;-77
2021/06/14 06:34:03;;;;;;;5.28;1.50;;;25.10;94.20;;;;;;5080444;28;20279;-76
2021/06/14 06:36:29;;;;;;;2.65;1.33;;;25.20;93.90;;;;;;5082689;28;20177;-76
2021/06/14 06:38:54;;;;;;;2.50;1.30;;;25.10;94.80;;;;;;5082558;28;20185;-75
2021/06/14 06:41:20;;;;;;;3.15;1.45;;;25.00;94.70;;;;;;5082956;28;20189;-76
2021/06/14 06:43:46;;;;;;;3.75;1.75;;;24.70;95.30;;;;;;5082704;28;20223;-76
2021/06/14 06:46:12;;;;;;;1.73;1.30;;;24.20;97.00;;;;;;5082811;28;20291;-75
2021/06/14 06:48:38;;;;;;;2.42;1.67;;;23.70;98.10;;;;;;5065439;28;20177;-76
2021/06/14 06:51:04;;;;;;;1.63;1.33;;;23.10;99.90;;;;;;5083490;28;20177;-75
2021/06/14 06:53:30;;;;;;;2.95;1.60;;;22.70;99.90;;;;;;5083258;28;20255;-76
2021/06/14 06:55:56;;;;;;;1.80;1.40;;;22.50;99.90;;;;;;5082577;28;20655;-76
2021/06/14 06:58:22;;;;;;;2.22;1.30;;;22.20;99.90;;;;;;5083630;28;20191;-76
2021/06/14 07:00:49;;;;;;;3.28;1.58;;;22.10;99.90;;;;;;5083342;28;20237;-77
2021/06/14 07:03:18;;;;;;;1.85;1.40;;;22.00;99.90;;;;;;5083079;28;20252;-76
2021/06/14 07:05:46;;;;;;;2.90;1.25;;;22.10;99.90;;;;;;5082498;28;20192;-77
2021/06/14 07:08:12;;;;;;;1.80;1.42;;;22.00;99.90;;;;;;5083033;28;20169;-76
2021/06/14 07:10:38;;;;;;;2.42;1.23;;;21.70;99.90;;;;;;5083340;28;20238;-75
2021/06/14 07:13:04;;;;;;;1.75;1.25;;;21.60;99.90;;;;;;5083150;28;20711;-76
2021/06/14 07:15:30;;;;;;;2.70;1.38;;;21.40;99.90;;;;;;5082778;28;20212;-76
2021/06/14 07:17:56;;;;;;;2.33;1.35;;;21.60;99.90;;;;;;5083195;28;20645;-77
2021/06/14 07:20:22;;;;;;;2.92;1.30;;;21.80;99.90;;;;;;5083997;28;20206;-76
2021/06/14 07:22:48;;;;;;;1.70;1.50;;;21.90;99.90;;;;;;5083267;28;20188;-76
2021/06/14 07:25:14;;;;;;;3.45;2.03;;;21.90;99.90;;;;;;5082796;28;20201;-74
2021/06/14 07:27:41;;;;;;;2.83;1.33;;;22.00;99.90;;;;;;5083207;28;20177;-74
2021/06/14 07:30:08;;;;;;;4.15;1.75;;;22.10;99.90;;;;;;5083156;28;20173;-73
2021/06/14 07:32:34;;;;;;;2.53;1.80;;;21.90;99.90;;;;;;5083345;28;20647;-73
2021/06/14 07:35:00;;;;;;;2.17;1.38;;;21.80;99.90;;;;;;5082241;28;20196;-72
2021/06/14 07:37:26;;;;;;;3.50;1.48;;;21.80;99.90;;;;;;5083555;28;20181;-73
2021/06/14 07:39:51;;;;;;;2.08;1.55;;;21.80;99.90;;;;;;5086301;28;20249;-72
2021/06/14 07:42:18;;;;;;;1.33;1.23;;;21.90;99.90;;;;;;5087503;28;20177;-73
2021/06/14 07:44:45;;;;;;;4.28;1.70;;;22.00;99.90;;;;;;5085863;28;20559;-71
2021/06/14 07:47:11;;;;;;;2.28;1.20;;;22.30;99.90;;;;;;5086853;28;20172;-74
2021/06/14 07:49:38;;;;;;;3.85;1.75;;;22.40;99.90;;;;;;5087116;28;20181;-73
2021/06/14 07:52:04;;;;;;;2.35;1.58;;;22.40;99.90;;;;;;5086836;28;20283;-73
2021/06/14 07:54:30;;;;;;;2.80;1.55;;;22.50;99.90;;;;;;5085887;28;20264;-73
2021/06/14 07:56:55;;;;;;;2.20;1.40;;;22.50;99.90;;;;;;5087215;28;20187;-74
2021/06/14 07:59:21;;;;;;;1.88;1.50;;;22.50;99.90;;;;;;5080342;28;20287;-74
2021/06/14 08:01:46;;;;;;;2.45;1.13;;;22.50;99.90;;;;;;5085393;28;20655;-73
2021/06/14 08:04:12;;;;;;;2.78;1.50;;;22.50;99.90;;;;;;5084851;28;20204;-74
2021/06/14 08:06:38;;;;;;;1.88;1.27;;;22.70;99.90;;;;;;5085759;28;20205;-73
2021/06/14 08:09:08;;;;;;;1.65;1.40;;;22.90;99.90;;;;;;5086396;28;20205;-74
2021/06/14 08:11:34;;;;;;;2.63;1.48;;;22.70;99.90;;;;;;5086142;28;20177;-74
2021/06/14 08:14:00;;;;;;;8.73;2.10;;;22.70;99.90;;;;;;5085933;28;20196;-73
2021/06/14 08:16:27;;;;;;;3.08;1.70;;;22.80;99.90;;;;;;5085191;28;20208;-73
2021/06/14 08:26:37;;;;;;;2.40;1.90;;;23.10;99.90;;;;;;5085899;28;20215;-74
2021/06/14 08:29:03;;;;;;;3.17;1.65;;;23.20;99.90;;;;;;5085902;28;20185;-74
2021/06/14 08:31:31;;;;;;;4.60;1.77;;;23.20;99.90;;;;;;5085928;28;20177;-74
2021/06/14 08:33:58;;;;;;;2.53;1.40;;;23.20;99.90;;;;;;5085770;28;20228;-73
2021/06/14 08:36:24;;;;;;;4.07;2.03;;;23.30;99.90;;;;;;5085143;28;20181;-74
2021/06/14 08:38:50;;;;;;;2.60;1.40;;;23.30;99.90;;;;;;5086165;28;20187;-74
2021/06/14 08:41:16;;;;;;;1.95;1.40;;;23.20;99.80;;;;;;5085725;28;20177;-74
2021/06/14 08:43:44;;;;;;;2.00;1.40;;;23.50;99.60;;;;;;5085596;28;20204;-74
2021/06/14 08:46:10;;;;;;;2.45;1.38;;;23.50;98.20;;;;;;5085284;28;20212;-73
2021/06/14 08:48:38;;;;;;;1.67;1.50;;;23.00;98.90;;;;;;5085735;28;20185;-73
2021/06/14 08:51:04;;;;;;;3.90;2.05;;;23.30;99.90;;;;;;5085523;28;20218;-74
2021/06/14 08:53:30;;;;;;;3.28;1.33;;;23.60;99.90;;;;;;5085766;28;20224;-74
2021/06/14 08:55:57;;;;;;;2.13;1.50;;;23.70;98.30;;;;;;5084407;28;20199;-74
2021/06/14 08:58:23;;;;;;;14.23;5.10;;;23.90;97.40;;;;;;5085390;28;20180;-74
2021/06/14 09:00:49;;;;;;;2.67;1.70;;;23.60;99.90;;;;;;5085315;28;20633;-73
2021/06/14 09:03:18;;;;;;;2.72;1.63;;;23.70;99.20;;;;;;5085347;28;20216;-73
2021/06/14 09:05:44;;;;;;;2.08;1.60;;;24.00;99.70;;;;;;5084379;28;20261;-73
2021/06/14 09:08:09;;;;;;;1.80;1.35;;;24.10;98.40;;;;;;5067665;28;20645;-72
2021/06/14 09:10:39;;;;;;;2.83;1.27;;;24.10;99.10;;;;;;5085036;28;20177;-75
2021/06/14 09:13:31;;;;;;;2.15;1.45;;;24.10;99.30;;;;;;5084042;28;20205;-73
2021/06/14 09:16:10;;;;;;;2.15;1.38;;;23.90;98.20;;;;;;5074283;28;20241;-74
2021/06/14 09:18:38;;;;;;;1.30;1.20;;;24.00;96.70;;;;;;5083716;28;20181;-73
2021/06/14 09:21:11;;;;;;;3.08;1.33;;;23.90;99.60;;;;;;5084160;28;20181;-75
2021/06/14 09:23:50;;;;;;;1.83;1.38;;;23.60;99.00;;;;;;5083290;28;20663;-75
2021/06/14 09:26:36;;;;;;;1.48;1.13;;;23.60;96.80;;;;;;5065755;28;20216;-73
2021/06/14 09:29:21;;;;;;;3.90;1.52;;;23.80;99.90;;;;;;5084015;28;20263;-74
2021/06/14 09:31:48;;;;;;;2.90;1.50;;;23.70;97.20;;;;;;5084640;28;20184;-75
2021/06/14 09:34:15;;;;;;;1.60;1.20;;;23.90;97.20;;;;;;5080564;28;20205;-73
2021/06/14 09:36:46;;;;;;;2.00;1.08;;;24.00;94.70;;;;;;5082491;28;20407;-74
2021/06/14 09:39:18;;;;;;;1.60;1.25;;;24.10;94.40;;;;;;5081255;28;20435;-73
2021/06/14 09:41:52;;;;;;;1.25;1.02;;;24.10;97.90;;;;;;5082966;28;20701;-72
2021/06/14 09:44:31;;;;;;;2.85;1.25;;;24.40;97.90;;;;;;5081884;28;20578;-73
2021/06/14 09:47:08;;;;;;;2.92;1.90;;;24.60;96.10;;;;;;5082985;28;20297;-72
2021/06/14 09:49:35;;;;;;;2.03;1.10;;;24.30;98.80;;;;;;5062904;28;20735;-73
2021/06/14 09:52:01;;;;;;;1.52;1.40;;;24.20;97.70;;;;;;5083063;28;20948;-73
2021/06/14 09:54:33;;;;;;;2.05;1.55;;;24.30;98.10;;;;;;5078350;28;20287;-73
2021/06/14 09:57:00;;;;;;;1.88;1.10;;;24.30;97.10;;;;;;5077819;28;20260;-75
2021/06/14 09:59:39;;;;;;;2.45;1.38;;;24.50;95.50;;;;;;5082153;28;20549;-72
2021/06/14 10:02:16;;;;;;;1.73;1.17;;;24.60;93.70;;;;;;5081945;28;20612;-72
2021/06/14 10:04:42;;;;;;;1.50;1.10;;;24.30;96.50;;;;;;5063499;28;20559;-73
2021/06/14 10:07:12;;;;;;;2.25;1.58;;;24.40;97.40;;;;;;5083810;28;20216;-73
2021/06/14 10:09:41;;;;;;;2.85;1.40;;;24.60;95.90;;;;;;5083505;28;20655;-73
2021/06/14 10:12:18;;;;;;;2.40;1.40;;;24.90;96.20;;;;;;5083915;28;20177;-73
2021/06/14 10:15:01;;;;;;;3.63;1.40;;;24.90;96.90;;;;;;5083213;28;20200;-73
2021/06/14 10:17:40;;;;;;;1.92;1.63;;;24.90;95.10;;;;;;5083585;28;20263;-72
2021/06/14 10:20:09;;;;;;;2.53;1.83;;;24.90;96.00;;;;;;5083857;28;20271;-73
2021/06/14 10:22:35;;;;;;;4.85;1.88;;;24.90;96.70;;;;;;5084007;28;20753;-73
2021/06/14 10:25:01;;;;;;;3.78;1.65;;;24.80;95.30;;;;;;5083089;28;20690;-73
2021/06/14 10:27:27;;;;;;;2.50;1.38;;;24.80;96.10;;;;;;5083957;28;20216;-74
2021/06/14 10:29:53;;;;;;;2.78;1.30;;;24.50;93.90;;;;;;5083868;28;20185;-73
2021/06/14 10:32:19;;;;;;;1.52;1.42;;;24.60;94.70;;;;;;5083391;28;20177;-73
2021/06/14 10:34:48;;;;;;;1.30;1.10;;;24.90;95.80;;;;;;5083123;28;20204;-73
2021/06/14 10:37:15;;;;;;;3.00;1.33;;;25.10;96.30;;;;;;5084156;28;20216;-72
2021/06/14 10:39:46;;;;;;;1.45;1.00;;;25.00;96.20;;;;;;5083915;28;20180;-73
2021/06/14 10:42:13;;;;;;;1.20;1.10;;;25.00;94.90;;;;;;5083100;28;20596;-74
2021/06/14 10:44:40;;;;;;;1.70;1.27;;;25.00;95.20;;;;;;5082871;28;20224;-74
2021/06/14 10:47:08;;;;;;;2.10;1.58;;;25.20;95.20;;;;;;5083296;28;20337;-73
2021/06/14 10:49:35;;;;;;;1.73;1.10;;;25.30;95.80;;;;;;5065916;28;20180;-75
2021/06/14 10:52:03;;;;;;;1.40;1.30;;;25.50;94.90;;;;;;5083296;28;20268;-75
2021/06/14 10:54:44;;;;;;;1.65;1.23;;;25.40;94.60;;;;;;5083003;28;20201;-74
2021/06/14 10:57:12;;;;;;;2.85;1.40;;;25.10;95.60;;;;;;5083100;28;20185;-74
2021/06/14 10:59:45;;;;;;;1.77;1.00;;;25.10;95.70;;;;;;5083619;28;20276;-74
2021/06/14 11:02:13;;;;;;;2.33;1.23;;;25.40;97.90;;;;;;5083476;28;20648;-73
2021/06/14 11:04:39;;;;;;;1.50;1.00;;;25.60;96.30;;;;;;5064963;28;21124;-73
2021/06/14 11:07:05;;;;;;;2.45;1.42;;;25.60;94.30;;;;;;5083776;28;20204;-73
2021/06/14 11:09:40;;;;;;;1.83;1.20;;;25.50;95.30;;;;;;5083835;28;21130;-74
2021/06/14 11:12:08;;;;;;;1.80;1.30;;;25.80;95.30;;;;;;5083869;28;20226;-73
2021/06/14 11:14:36;;;;;;;2.28;1.20;;;26.00;94.30;;;;;;5085675;28;20258;-73
2021/06/14 11:17:17;;;;;;;2.83;1.00;;;26.20;92.40;;;;;;5087679;28;20236;-74
2021/06/14 11:19:45;;;;;;;1.25;1.15;;;26.10;92.60;;;;;;5087672;28;20237;-72
2021/06/14 11:22:11;;;;;;;1.83;1.13;;;26.10;94.40;;;;;;5087155;28;20210;-73
2021/06/14 11:24:39;;;;;;;1.58;1.27;;;26.50;94.80;;;;;;5086883;28;20209;-73
2021/06/14 11:27:09;;;;;;;2.22;1.25;;;26.60;93.80;;;;;;5087409;28;20221;-73
2021/06/14 11:29:52;;;;;;;2.63;1.30;;;26.50;93.60;;;;;;5087289;28;20184;-73
2021/06/14 11:32:20;;;;;;;1.25;1.05;;;26.20;92.30;;;;;;5086428;28;20568;-73
2021/06/14 11:34:57;;;;;;;1.90;1.38;;;26.10;93.00;;;;;;5085655;28;20198;-73
2021/06/14 11:37:47;;;;;;;2.85;1.17;;;26.30;92.10;;;;;;5087115;28;20181;-73
2021/06/14 11:40:15;;;;;;;1.88;1.30;;;26.30;93.90;;;;;;5086688;28;20648;-72
2021/06/14 11:42:44;;;;;;;2.38;1.70;;;25.90;92.60;;;;;;5086891;28;20323;-73
2021/06/14 11:45:28;;;;;;;2.30;1.42;;;25.70;93.80;;;;;;5086012;28;20220;-73
2021/06/14 11:47:56;;;;;;;1.95;1.42;;;25.70;95.10;;;;;;5086930;28;20634;-73
2021/06/14 11:50:24;;;;;;;2.50;1.67;;;26.00;94.10;;;;;;5087019;28;20181;-73
2021/06/14 11:52:59;;;;;;;1.58;1.48;;;26.10;93.30;;;;;;5086679;28;20230;-73
2021/06/14 11:55:27;;;;;;;3.33;1.60;;;26.60;92.70;;;;;;5086053;28;20184;-73
2021/06/14 11:57:58;;;;;;;1.15;1.05;;;26.90;91.50;;;;;;5085891;28;20237;-73
2021/06/14 12:00:34;;;;;;;2.97;1.40;;;27.00;91.30;;;;;;5086820;28;20181;-73
2021/06/14 12:03:00;;;;;;;3.95;1.88;;;27.30;91.30;;;;;;5086260;28;20258;-73
2021/06/14 12:05:30;;;;;;;2.92;1.27;;;27.40;91.80;;;;;;5067820;28;20574;-74
2021/06/14 12:07:55;;;;;;;1.85;1.23;;;27.50;91.70;;;;;;5085594;28;20663;-73
2021/06/14 12:10:23;;;;;;;2.40;1.48;;;27.20;91.80;;;;;;5086740;28;20180;-73
2021/06/14 12:13:11;;;;;;;2.15;1.48;;;27.40;92.20;;;;;;5086153;28;20261;-71
2021/06/14 12:15:40;;;;;;;1.90;1.30;;;27.60;90.20;;;;;;5067698;28;20230;-73
2021/06/14 12:18:07;;;;;;;2.70;1.77;;;27.80;90.10;;;;;;5086235;28;21047;-73
2021/06/14 12:20:38;;;;;;;2.58;1.67;;;27.90;89.50;;;;;;5086271;28;20181;-72
2021/06/14 12:23:10;;;;;;;2.15;1.70;;;27.80;88.90;;;;;;5085910;28;21044;-73
2021/06/14 12:25:42;;;;;;;4.20;1.88;;;27.90;87.10;;;;;;5066985;28;20209;-73
2021/06/14 12:28:13;;;;;;;1.55;1.23;;;27.90;86.60;;;;;;5085427;28;20184;-72
2021/06/14 12:30:43;;;;;;;6.03;1.98;;;27.90;86.40;;;;;;5085987;28;20173;-73
2021/06/14 12:33:10;;;;;;;1.42;1.30;;;28.00;89.00;;;;;;5067179;28;20563;-73
2021/06/14 12:35:39;;;;;;;2.80;1.63;;;28.00;87.60;;;;;;5085224;28;20855;-74
2021/06/14 12:38:12;;;;;;;2.17;1.73;;;28.00;87.70;;;;;;5085871;28;20184;-73
2021/06/14 12:40:40;;;;;;;1.90;1.67;;;28.20;87.20;;;;;;5085891;28;20230;-74
2021/06/14 12:43:09;;;;;;;3.88;1.42;;;28.10;85.00;;;;;;5067587;28;20209;-74
2021/06/14 12:45:38;;;;;;;2.28;1.63;;;28.10;86.20;;;;;;5084819;28;21100;-73
2021/06/14 12:48:06;;;;;;;2.88;1.55;;;28.10;86.50;;;;;;5067661;28;20192;-73
2021/06/14 12:50:36;;;;;;;1.58;1.40;;;28.30;88.30;;;;;;5086502;28;20180;-77
2021/06/14 12:53:04;;;;;;;2.08;1.73;;;28.40;85.00;;;;;;5085920;28;20201;-75
2021/06/14 12:55:32;;;;;;;1.33;1.23;;;28.30;82.40;;;;;;5085783;28;20185;-75
2021/06/14 12:58:05;;;;;;;1.83;1.65;;;28.30;83.50;;;;;;5086028;28;20215;-75
2021/06/14 13:00:33;;;;;;;2.55;1.55;;;28.30;86.70;;;;;;5086504;28;20275;-75
2021/06/14 13:03:01;;;;;;;1.88;1.52;;;28.30;85.40;;;;;;5085613;28;20219;-76
2021/06/14 13:05:29;;;;;;;1.80;1.70;;;28.20;86.10;;;;;;5085374;28;20209;-75
2021/06/14 13:08:07;;;;;;;2.40;1.85;;;28.30;85.30;;;;;;5086090;28;20181;-75
2021/06/14 13:10:41;;;;;;;1.80;1.60;;;27.80;85.00;;;;;;5085609;28;20180;-76
2021/06/14 13:13:31;;;;;;;2.05;1.52;;;27.70;87.10;;;;;;5085026;28;20188;-75
2021/06/14 13:16:06;;;;;;;3.00;1.40;;;27.50;86.40;;;;;;5074869;28;20206;-76
2021/06/14 13:18:32;;;;;;;2.45;1.90;;;27.70;88.50;;;;;;5086120;28;20184;-75
2021/06/14 13:21:16;;;;;;;2.13;1.30;;;28.10;87.60;;;;;;5085655;28;20246;-75
2021/06/14 13:23:47;;;;;;;3.80;1.60;;;28.30;86.90;;;;;;5081542;22;21036;-75
2021/06/14 13:26:13;;;;;;;2.67;1.52;;;28.50;87.40;;;;;;5074918;28;20208;-75
2021/06/14 13:28:43;;;;;;;1.67;1.50;;;28.60;86.70;;;;;;5072344;28;20674;-76
2021/06/14 13:31:18;;;;;;;2.13;1.40;;;28.50;85.90;;;;;;5068610;28;20176;-76
2021/06/14 13:36:39;;;;;;;2.03;1.80;;;28.40;85.50;;;;;;5073643;28;20213;-75
2021/06/14 13:39:15;;;;;;;2.67;1.50;;;28.30;84.90;;;;;;5070856;28;20185;-75
2021/06/14 13:41:42;;;;;;;2.30;1.52;;;28.20;87.50;;;;;;5067581;28;20189;-76
2021/06/14 13:44:18;;;;;;;1.98;1.60;;;28.20;86.30;;;;;;5070958;28;20299;-76
2021/06/14 13:46:47;;;;;;;4.43;2.40;;;28.30;86.90;;;;;;5074521;28;20204;-75
2021/06/14 13:49:26;;;;;;;2.78;1.58;;;28.50;88.80;;;;;;5070851;28;20174;-76
2021/06/14 13:52:01;;;;;;;2.42;1.40;;;28.50;85.90;;;;;;5068771;28;20173;-76
2021/06/14 13:54:28;;;;;;;7.57;2.38;;;28.60;85.90;;;;;;5069522;28;20683;-76
2021/06/14 13:56:54;;;;;;;1.88;1.52;;;28.60;85.90;;;;;;5069605;28;20217;-76
2021/06/14 13:59:23;;;;;;;1.00;0.90;;;28.70;82.40;;;;;;5054793;28;20213;-77
2021/06/14 14:01:51;;;;;;;1.55;1.10;;;28.80;81.80;;;;;;5070818;28;20189;-76
2021/06/14 14:04:34;;;;;;;2.33;1.17;;;28.70;81.20;;;;;;5072532;28;20490;-77
2021/06/14 14:07:00;;;;;;;2.40;1.50;;;28.60;80.00;;;;;;5078645;28;20643;-77
2021/06/14 14:09:27;;;;;;;1.30;1.20;;;28.60;80.60;;;;;;5073744;28;20177;-77
2021/06/14 14:11:54;;;;;;;1.10;1.00;;;28.70;80.70;;;;;;5067259;28;20601;-77
2021/06/14 14:14:26;;;;;;;1.98;1.10;;;28.50;79.30;;;;;;5073495;28;21372;-77
2021/06/14 14:16:52;;;;;;;1.58;1.10;;;28.60;80.30;;;;;;5076483;28;20235;-80
2021/06/14 14:19:20;;;;;;;1.33;1.23;;;28.60;80.00;;;;;;5081833;28;20209;-79
2021/06/14 14:21:46;;;;;;;1.15;0.93;;;28.60;79.60;;;;;;5079607;28;20193;-80
2021/06/14 14:24:13;;;;;;;1.90;1.23;;;28.80;77.30;;;;;;5081059;28;20193;-80
2021/06/14 14:26:43;;;;;;;1.38;1.10;;;28.80;77.70;;;;;;5064399;28;20219;-79
2021/06/14 14:29:21;;;;;;;1.48;0.90;;;28.80;77.00;;;;;;5081311;28;20670;-80
2021/06/14 14:31:56;;;;;;;1.35;1.20;;;28.90;78.80;;;;;;5078309;28;20694;-79
2021/06/14 14:34:45;;;;;;;1.00;0.90;;;28.80;76.80;;;;;;5083978;28;20273;-82
2021/06/14 14:37:26;;;;;;;1.38;1.00;;;28.90;79.30;;;;;;5065866;28;20211;-79
2021/06/14 14:40:11;;;;;;;1.10;1.00;;;28.90;79.30;;;;;;5065781;28;20191;-80
2021/06/14 14:42:38;;;;;;;1.38;1.10;;;28.90;78.00;;;;;;5085482;28;20360;-79
2021/06/14 14:45:06;;;;;;;1.65;1.52;;;29.00;76.70;;;;;;5070131;28;20736;-80
2021/06/14 14:47:32;;;;;;;1.63;1.27;;;28.80;79.00;;;;;;5067101;28;20199;-80
2021/06/14 14:49:58;;;;;;;1.38;1.10;;;28.80;80.20;;;;;;5093571;28;20178;-80
2021/06/14 14:52:24;;;;;;;0.88;0.80;;;28.90;79.10;;;;;;5093086;28;20244;-82
2021/06/14 14:54:55;;;;;;;1.30;0.90;;;29.20;79.90;;;;;;5071147;28;20188;-81